createdAt,value
2019-05-29T00:01:12.167Z,2.15
2019-05-29T00:05:12.240Z,1.75
2019-05-29T00:09:15.060Z,1.80
2019-05-29T00:13:17.000Z,2.10
2019-05-29T00:17:19.075Z,1.83
2019-05-29T00:21:21.018Z,1.70
2019-05-29T00:25:23.039Z,1.83
2019-05-29T00:29:24.983Z,1.90
2019-05-29T00:33:27.015Z,2.47
2019-05-29T00:37:29.165Z,2.80
2019-05-29T00:41:31.532Z,2.83
2019-05-29T00:45:33.465Z,2.97
2019-05-29T00:49:35.469Z,2.73
2019-05-29T00:53:37.858Z,4.00
2019-05-29T00:57:39.840Z,5.83
2019-05-29T01:01:41.828Z,5.00
2019-05-29T01:05:43.829Z,5.30
2019-05-29T01:09:45.728Z,4.70
2019-05-29T01:13:47.751Z,5.40
2019-05-29T01:17:49.652Z,5.83
2019-05-29T01:21:51.592Z,5.15
2019-05-29T01:25:53.537Z,5.73
2019-05-29T01:29:55.533Z,6.80
2019-05-29T01:33:57.520Z,6.63
2019-05-29T01:38:00.467Z,6.37
2019-05-29T01:42:02.372Z,7.40
2019-05-29T01:46:04.709Z,8.77
2019-05-29T01:50:08.337Z,8.58
2019-05-29T01:54:10.265Z,10.40
2019-05-29T01:58:12.187Z,7.40
2019-05-29T02:02:14.124Z,9.00
2019-05-29T02:06:16.043Z,9.83
2019-05-29T02:10:18.475Z,9.25
2019-05-29T02:14:20.544Z,9.87
2019-05-29T02:18:23.009Z,8.43
2019-05-29T02:22:25.120Z,7.20
2019-05-29T02:26:28.140Z,8.97
2019-05-29T02:30:30.845Z,10.93
2019-05-29T02:34:34.063Z,10.63
2019-05-29T02:38:36.021Z,10.10
2019-05-29T02:42:37.926Z,11.50
2019-05-29T02:46:39.867Z,11.37
2019-05-29T02:50:41.956Z,13.17
2019-05-29T02:54:43.901Z,11.60
2019-05-29T02:58:47.720Z,11.00
2019-05-29T03:02:49.654Z,13.60
2019-05-29T03:06:51.748Z,13.93
2019-05-29T03:10:53.750Z,12.93
2019-05-29T03:14:55.680Z,12.90
2019-05-29T03:18:57.611Z,12.77
2019-05-29T03:23:00.529Z,12.18
2019-05-29T03:27:02.466Z,13.73
2019-05-29T03:31:04.662Z,10.87
2019-05-29T03:35:09.686Z,14.38
2019-05-29T03:39:11.607Z,12.07
2019-05-29T03:43:13.550Z,12.43
2019-05-29T03:47:15.617Z,12.50
2019-05-29T03:51:17.549Z,13.10
2019-05-29T03:55:19.498Z,12.83
2019-05-29T03:59:21.578Z,13.87
2019-05-29T04:03:23.581Z,12.80
2019-05-29T04:07:26.867Z,14.33
2019-05-29T04:11:29.419Z,14.17
2019-05-29T04:15:34.432Z,13.00
2019-05-29T04:19:38.749Z,11.40
2019-05-29T04:23:43.414Z,10.80
2019-05-29T04:27:48.388Z,12.63
2019-05-29T04:31:50.338Z,12.83
2019-05-29T04:35:52.292Z,13.70
2019-05-29T04:39:54.241Z,13.70
2019-05-29T04:43:57.202Z,13.40
2019-05-29T04:47:59.238Z,12.97
2019-05-29T04:52:01.167Z,12.60
2019-05-29T04:56:03.134Z,11.60
2019-05-29T05:00:07.281Z,13.50
2019-05-29T05:04:09.259Z,12.35
2019-05-29T05:08:11.269Z,13.13
2019-05-29T05:12:13.335Z,12.57
2019-05-29T05:16:15.364Z,10.15
2019-05-29T05:20:17.509Z,12.40
2019-05-29T05:24:19.512Z,12.27
2019-05-29T05:28:21.779Z,11.83
2019-05-29T05:32:23.762Z,11.27
2019-05-29T05:36:25.714Z,10.30
2019-05-29T05:40:27.701Z,10.43
2019-05-29T05:44:30.696Z,10.57
2019-05-29T05:48:33.014Z,8.53
2019-05-29T05:52:35.292Z,10.60
2019-05-29T05:56:37.730Z,9.60
2019-05-29T06:00:41.932Z,9.17
2019-05-29T06:04:44.281Z,8.70
2019-05-29T06:08:46.971Z,7.73
2019-05-29T06:12:48.985Z,8.57
2019-05-29T06:16:51.015Z,8.60
2019-05-29T06:20:53.087Z,7.73
2019-05-29T06:24:55.095Z,8.63
2019-05-29T06:28:56.994Z,8.10
2019-05-29T06:32:58.943Z,8.00
2019-05-29T06:37:00.881Z,7.75
2019-05-29T06:41:02.812Z,4.90
2019-05-29T06:45:07.613Z,4.33
2019-05-29T06:49:10.515Z,4.70
2019-05-29T06:53:12.454Z,4.05
2019-05-29T06:57:14.403Z,3.70
2019-05-29T07:01:16.323Z,2.87
2019-05-29T07:05:19.398Z,2.80
2019-05-29T07:09:22.139Z,2.67
2019-05-29T07:13:24.183Z,2.70
2019-05-29T07:17:26.119Z,2.40
2019-05-29T07:21:28.047Z,2.87
2019-05-29T07:25:29.992Z,2.77
2019-05-29T07:29:32.997Z,2.80
2019-05-29T07:33:34.964Z,2.37
2019-05-29T07:37:37.774Z,2.70
2019-05-29T07:41:39.805Z,2.63
2019-05-29T07:45:42.190Z,2.30
2019-05-29T07:49:46.508Z,2.20
2019-05-29T07:53:48.806Z,2.50
2019-05-29T07:57:51.011Z,2.50
2019-05-29T08:01:52.973Z,2.93
2019-05-29T08:05:54.957Z,2.60
2019-05-29T08:09:57.007Z,2.83
2019-05-29T08:13:58.975Z,2.50
2019-05-29T08:18:00.968Z,2.90
2019-05-29T08:22:02.966Z,2.60
2019-05-29T08:26:05.135Z,2.67
2019-05-29T08:30:12.142Z,2.40
2019-05-29T08:34:14.088Z,2.75
2019-05-29T08:38:16.001Z,2.47
2019-05-29T08:42:23.287Z,2.20
2019-05-29T08:46:21.791Z,2.53
2019-05-29T08:50:23.733Z,2.80
2019-05-29T08:54:25.709Z,2.10
2019-05-29T08:58:27.615Z,2.20
2019-05-29T09:02:29.639Z,2.23
2019-05-29T09:06:31.564Z,2.20
2019-05-29T09:10:33.511Z,2.33
2019-05-29T09:14:35.455Z,2.50
2019-05-29T09:18:37.383Z,2.30
2019-05-29T09:22:39.462Z,2.20
2019-05-29T09:26:41.427Z,2.33
2019-05-29T09:30:44.410Z,2.57
2019-05-29T09:34:47.733Z,2.30
2019-05-29T09:38:49.809Z,2.57
2019-05-29T09:42:51.897Z,2.87
2019-05-29T09:46:54.042Z,2.30
2019-05-29T09:50:55.949Z,2.30
2019-05-29T09:54:58.228Z,2.30
2019-05-29T09:59:01.819Z,2.17
2019-05-29T10:03:04.929Z,1.93
2019-05-29T10:07:06.848Z,1.87
2019-05-29T10:11:10.855Z,2.00
2019-05-29T10:15:15.328Z,2.10
2019-05-29T10:19:17.356Z,1.80
2019-05-29T10:23:20.122Z,2.20
2019-05-29T10:27:22.451Z,2.13
2019-05-29T10:31:26.106Z,2.17
2019-05-29T10:35:28.002Z,2.07
2019-05-29T10:39:29.976Z,1.90
2019-05-29T10:43:34.641Z,2.00
2019-05-29T10:47:35.509Z,2.23
2019-05-29T10:51:37.444Z,2.00
2019-05-29T10:55:39.452Z,2.40
2019-05-29T10:59:41.379Z,2.20
2019-05-29T11:03:43.318Z,2.10
2019-05-29T11:07:45.753Z,2.30
2019-05-29T11:11:48.382Z,2.00
2019-05-29T11:15:50.851Z,2.20
2019-05-29T11:19:53.572Z,2.43
2019-05-29T11:23:56.049Z,2.10
2019-05-29T11:27:58.669Z,2.20
2019-05-29T11:32:00.829Z,2.40
2019-05-29T11:36:11.482Z,2.10
2019-05-29T11:40:10.588Z,2.40
2019-05-29T11:44:12.525Z,2.37
2019-05-29T11:48:16.080Z,2.23
2019-05-29T11:52:24.477Z,2.22
2019-05-29T11:56:21.760Z,2.43
2019-05-29T12:00:24.856Z,2.30
2019-05-29T12:04:27.169Z,2.00
2019-05-29T12:08:29.229Z,2.23
2019-05-29T12:12:31.171Z,2.60
2019-05-29T12:16:34.083Z,2.70
2019-05-29T12:20:36.154Z,2.17
2019-05-29T12:24:38.092Z,2.50
2019-05-29T12:28:40.125Z,2.67
2019-05-29T12:32:42.074Z,2.27
2019-05-29T12:36:44.017Z,3.20
2019-05-29T12:40:45.967Z,2.72
2019-05-29T12:44:47.903Z,2.43
2019-05-29T12:48:49.831Z,2.37
2019-05-29T12:52:51.767Z,2.50
2019-05-29T12:56:54.059Z,2.83
2019-05-29T13:01:00.722Z,2.90
2019-05-29T13:05:11.196Z,3.57
2019-05-29T13:09:09.329Z,2.50
2019-05-29T13:13:11.647Z,2.75
2019-05-29T13:17:13.808Z,2.60
2019-05-29T13:21:15.735Z,2.60
2019-05-29T13:25:17.938Z,2.60
2019-05-29T13:29:20.860Z,2.60
2019-05-29T13:33:22.964Z,3.03
2019-05-29T13:37:24.890Z,2.70
2019-05-29T13:41:26.895Z,2.20
2019-05-29T13:45:28.985Z,2.40
2019-05-29T13:49:30.958Z,2.00
2019-05-29T13:53:32.893Z,2.40
2019-05-29T13:57:34.816Z,2.27
2019-05-29T14:01:36.831Z,2.80
2019-05-29T14:05:38.907Z,1.87
2019-05-29T14:09:40.918Z,1.80
2019-05-29T14:13:42.930Z,2.00
2019-05-29T14:17:45.850Z,1.77
2019-05-29T14:21:48.182Z,1.93
2019-05-29T14:25:51.276Z,1.90
2019-05-29T14:29:53.338Z,1.90
2019-05-29T14:33:55.310Z,2.50
2019-05-29T14:37:58.247Z,2.20
2019-05-29T14:42:01.713Z,1.92
2019-05-29T14:46:05.928Z,2.10
2019-05-29T14:50:11.190Z,2.75
2019-05-29T14:54:13.635Z,2.07
2019-05-29T14:58:15.546Z,2.35
2019-05-29T15:02:23.519Z,2.50
2019-05-29T15:06:21.344Z,2.67
2019-05-29T15:10:27.539Z,2.57
2019-05-29T15:14:27.196Z,2.50
2019-05-29T15:18:29.158Z,2.23
2019-05-29T15:22:31.125Z,2.63
2019-05-29T15:26:33.061Z,2.43
2019-05-29T15:30:35.056Z,2.40
2019-05-29T15:34:37.003Z,2.00
2019-05-29T15:38:38.972Z,2.00
2019-05-29T15:42:40.938Z,1.83
2019-05-29T15:46:42.880Z,2.20
2019-05-29T15:50:45.802Z,1.90
2019-05-29T15:54:51.108Z,2.13
2019-05-29T15:58:53.044Z,1.90
2019-05-29T16:02:54.976Z,2.33
2019-05-29T16:06:57.949Z,2.03
2019-05-29T16:11:03.025Z,2.20
2019-05-29T16:15:09.102Z,2.00
2019-05-29T16:19:12.091Z,2.17
2019-05-29T16:23:30.742Z,2.20
2019-05-29T16:27:18.198Z,2.00
2019-05-29T16:31:20.817Z,2.33
2019-05-29T16:35:24.128Z,2.27
2019-05-29T16:39:26.221Z,2.10
2019-05-29T16:43:28.181Z,1.95
2019-05-29T16:47:30.155Z,2.07
2019-05-29T16:51:32.096Z,2.10
2019-05-29T16:55:34.098Z,2.23
2019-05-29T16:59:36.025Z,2.03
2019-05-29T17:03:37.983Z,2.70
2019-05-29T17:07:39.972Z,2.93
2019-05-29T17:11:41.953Z,2.20
2019-05-29T17:15:43.847Z,2.47
2019-05-29T17:19:45.780Z,2.40
2019-05-29T17:23:47.701Z,2.83
2019-05-29T17:27:49.644Z,2.40
2019-05-29T17:31:51.584Z,2.80
2019-05-29T17:35:53.509Z,2.70
2019-05-29T17:39:55.431Z,2.57
2019-05-29T17:43:57.374Z,2.57
2019-05-29T17:47:59.299Z,2.50
2019-05-29T17:52:01.617Z,2.40
2019-05-29T17:56:04.868Z,2.60
2019-05-29T18:00:15.860Z,2.47
2019-05-29T18:04:18.109Z,2.75
2019-05-29T18:08:20.725Z,2.80
2019-05-29T18:12:25.024Z,2.90
2019-05-29T18:16:27.769Z,2.77
2019-05-29T18:20:30.079Z,2.60
2019-05-29T18:24:32.118Z,2.33
2019-05-29T18:28:34.086Z,2.27
2019-05-29T18:32:37.423Z,2.60
2019-05-29T18:36:39.468Z,2.67
2019-05-29T18:40:41.441Z,1.77
2019-05-29T18:44:43.464Z,1.60
2019-05-29T18:48:45.395Z,2.13
2019-05-29T18:52:47.356Z,2.10
2019-05-29T18:57:13.613Z,2.10
2019-05-29T19:00:53.218Z,2.00
2019-05-29T19:04:55.143Z,2.03
2019-05-29T19:08:57.112Z,1.80
2019-05-29T19:12:59.069Z,2.53
2019-05-29T19:17:01.684Z,2.47
2019-05-29T19:21:03.615Z,2.50
2019-05-29T19:25:07.561Z,2.37
2019-05-29T19:29:09.512Z,2.30
2019-05-29T19:33:11.526Z,1.92
2019-05-29T19:37:13.632Z,2.20
2019-05-29T19:41:15.585Z,2.60
2019-05-29T19:45:18.410Z,3.00
2019-05-29T19:49:20.342Z,3.20
2019-05-29T19:53:24.666Z,1.90
2019-05-29T19:57:26.003Z,2.60
2019-05-29T20:01:31.673Z,2.40
2019-05-29T20:05:32.741Z,2.50
2019-05-29T20:09:35.457Z,2.23
2019-05-29T20:13:38.020Z,2.20
2019-05-29T20:17:40.163Z,2.67
2019-05-29T20:21:42.328Z,2.30
2019-05-29T20:25:44.260Z,2.93
2019-05-29T20:29:46.208Z,2.50
2019-05-29T20:33:48.195Z,2.50
2019-05-29T20:37:50.438Z,2.80
2019-05-29T20:41:52.420Z,2.87
2019-05-29T20:45:54.326Z,2.90
2019-05-29T20:49:56.316Z,2.80
2019-05-29T20:53:59.054Z,2.83
2019-05-29T20:58:01.372Z,2.80
2019-05-29T21:02:03.304Z,2.73
2019-05-29T21:06:06.171Z,2.87
2019-05-29T21:10:11.332Z,2.63
2019-05-29T21:14:13.563Z,2.80
2019-05-29T21:18:15.571Z,2.92
2019-05-29T21:22:17.558Z,3.50
2019-05-29T21:26:19.479Z,2.70
2019-05-29T21:30:27.252Z,3.90
2019-05-29T21:34:29.144Z,2.80
2019-05-29T21:38:31.099Z,3.50
2019-05-29T21:42:33.005Z,2.67
2019-05-29T21:46:34.931Z,2.70
2019-05-29T21:50:37.577Z,2.73
2019-05-29T21:54:39.580Z,3.03
2019-05-29T21:58:57.978Z,3.97
2019-05-29T22:02:46.385Z,3.20
2019-05-29T22:06:48.929Z,3.80
2019-05-29T22:10:51.409Z,3.30
2019-05-29T22:14:55.000Z,3.27
2019-05-29T22:19:01.318Z,3.53
2019-05-29T22:23:02.759Z,3.80
2019-05-29T22:27:04.957Z,2.67
2019-05-29T22:31:08.473Z,3.70
2019-05-29T22:35:11.125Z,3.50
2019-05-29T22:39:14.184Z,4.25
2019-05-29T22:43:16.104Z,3.50
2019-05-29T22:47:18.518Z,2.50
2019-05-29T22:51:20.431Z,2.80
2019-05-29T22:55:22.731Z,2.70
2019-05-29T22:59:32.024Z,2.83
2019-05-29T23:03:28.485Z,2.60
2019-05-29T23:07:30.471Z,2.03
2019-05-29T23:11:33.025Z,3.03
2019-05-29T23:15:35.023Z,2.33
2019-05-29T23:19:40.271Z,3.00
2019-05-29T23:23:42.209Z,2.80
2019-05-29T23:27:44.097Z,2.10
2019-05-29T23:31:46.042Z,2.30
2019-05-29T23:35:48.010Z,2.70
2019-05-29T23:39:49.961Z,4.10
2019-05-29T23:43:53.245Z,5.50
2019-05-29T23:47:55.471Z,5.10
2019-05-29T23:51:57.595Z,3.53
2019-05-29T23:55:59.743Z,3.80
